createdAt,value
2018-07-27T00:01:51.817Z,25.83
2018-07-27T00:04:20.914Z,25.79
2018-07-27T00:06:49.965Z,25.77
2018-07-27T00:09:19.034Z,25.75
2018-07-27T00:11:48.078Z,25.61
2018-07-27T00:14:17.247Z,25.52
2018-07-27T00:16:46.312Z,25.55
2018-07-27T00:19:15.354Z,25.52
2018-07-27T00:21:44.530Z,25.40
2018-07-27T00:24:13.604Z,25.42
2018-07-27T00:26:42.703Z,25.58
2018-07-27T00:29:11.797Z,25.46
2018-07-27T00:31:40.927Z,25.40
2018-07-27T00:34:10.123Z,25.29
2018-07-27T00:36:39.405Z,25.21
2018-07-27T00:39:09.909Z,25.08
2018-07-27T00:41:38.990Z,25.12
2018-07-27T00:44:08.164Z,25.20
2018-07-27T00:46:37.230Z,25.09
2018-07-27T00:49:06.344Z,25.04
2018-07-27T00:51:35.434Z,25.03
2018-07-27T00:54:04.505Z,25.02
2018-07-27T00:56:33.576Z,24.96
2018-07-27T00:59:02.626Z,25.15
2018-07-27T01:01:31.722Z,25.00
2018-07-27T01:04:00.741Z,24.99
2018-07-27T01:06:29.816Z,24.95
2018-07-27T01:08:58.858Z,24.96
2018-07-27T01:11:27.936Z,25.03
2018-07-27T01:13:56.989Z,25.04
2018-07-27T01:16:26.051Z,25.00
2018-07-27T01:18:55.103Z,24.94
2018-07-27T01:21:24.159Z,24.71
2018-07-27T01:23:53.247Z,24.54
2018-07-27T01:26:22.266Z,24.35
2018-07-27T01:28:51.637Z,24.34
2018-07-27T01:31:21.067Z,24.38
2018-07-27T01:33:50.154Z,24.34
2018-07-27T01:36:19.290Z,24.41
2018-07-27T01:38:48.362Z,24.13
2018-07-27T01:41:17.461Z,24.10
2018-07-27T01:43:46.613Z,23.89
2018-07-27T01:46:15.641Z,23.75
2018-07-27T01:48:44.737Z,23.81
2018-07-27T01:51:14.607Z,23.96
2018-07-27T01:53:43.723Z,24.06
2018-07-27T01:56:12.832Z,24.05
2018-07-27T01:58:41.970Z,23.98
2018-07-27T02:01:11.082Z,23.76
2018-07-27T02:03:40.161Z,23.64
2018-07-27T02:06:09.222Z,23.35
2018-07-27T02:08:38.398Z,23.17
2018-07-27T02:11:07.477Z,23.11
2018-07-27T02:13:36.571Z,23.24
2018-07-27T02:16:05.808Z,22.82
2018-07-27T02:18:34.850Z,23.76
2018-07-27T02:21:03.954Z,23.83
2018-07-27T02:23:33.103Z,23.80
2018-07-27T02:26:02.395Z,23.70
2018-07-27T02:28:31.475Z,23.63
2018-07-27T02:31:00.638Z,23.68
2018-07-27T02:33:29.686Z,23.71
2018-07-27T02:35:58.822Z,23.66
2018-07-27T02:38:27.873Z,23.53
2018-07-27T02:40:57.173Z,23.46
2018-07-27T02:43:26.268Z,23.47
2018-07-27T02:45:55.438Z,23.50
2018-07-27T02:48:24.827Z,23.42
2018-07-27T02:50:54.273Z,23.30
2018-07-27T02:53:23.324Z,23.28
2018-07-27T02:55:52.426Z,23.28
2018-07-27T02:58:21.515Z,23.19
2018-07-27T03:00:50.622Z,23.07
2018-07-27T03:03:19.706Z,23.14
2018-07-27T03:05:48.773Z,23.04
2018-07-27T03:08:17.837Z,23.04
2018-07-27T03:10:46.913Z,22.85
2018-07-27T03:13:15.985Z,22.85
2018-07-27T03:15:45.055Z,23.02
2018-07-27T03:18:14.125Z,23.04
2018-07-27T03:20:43.156Z,23.09
2018-07-27T03:23:12.260Z,22.97
2018-07-27T03:25:41.264Z,22.85
2018-07-27T03:28:10.322Z,22.74
2018-07-27T03:30:39.363Z,22.74
2018-07-27T03:33:08.673Z,22.60
2018-07-27T03:35:37.769Z,22.61
2018-07-27T03:38:06.881Z,22.67
2018-07-27T03:40:35.920Z,22.58
2018-07-27T03:43:05.434Z,22.55
2018-07-27T03:45:34.592Z,22.54
2018-07-27T03:48:08.427Z,22.54
2018-07-27T03:50:38.945Z,22.48
2018-07-27T03:53:08.445Z,22.39
2018-07-27T03:55:37.819Z,22.41
2018-07-27T03:58:06.889Z,22.35
2018-07-27T04:00:35.951Z,22.29
2018-07-27T04:03:05.078Z,22.28
2018-07-27T04:05:34.170Z,22.41
2018-07-27T04:08:03.307Z,22.20
2018-07-27T04:10:32.403Z,22.09
2018-07-27T04:13:01.575Z,22.18
2018-07-27T04:15:30.610Z,22.18
2018-07-27T04:18:00.940Z,22.22
2018-07-27T04:20:30.587Z,22.22
2018-07-27T04:23:00.649Z,22.34
2018-07-27T04:25:29.715Z,22.35
2018-07-27T04:27:58.761Z,22.24
2018-07-27T04:30:27.878Z,22.16
2018-07-27T04:32:57.031Z,22.15
2018-07-27T04:35:26.085Z,22.13
2018-07-27T04:37:55.202Z,22.00
2018-07-27T04:40:24.251Z,21.97
2018-07-27T04:42:53.380Z,21.97
2018-07-27T04:45:22.433Z,21.96
2018-07-27T04:47:51.844Z,22.03
2018-07-27T04:50:20.957Z,22.11
2018-07-27T04:52:50.477Z,22.18
2018-07-27T04:55:19.555Z,22.21
2018-07-27T04:57:48.698Z,22.22
2018-07-27T05:00:17.794Z,22.29
2018-07-27T05:02:46.929Z,22.30
2018-07-27T05:05:16.125Z,22.40
2018-07-27T05:07:45.250Z,22.39
2018-07-27T05:10:19.737Z,22.40
2018-07-27T05:12:48.769Z,22.37
2018-07-27T05:15:17.842Z,22.42
2018-07-27T05:17:47.179Z,22.55
2018-07-27T05:20:16.306Z,22.63
2018-07-27T05:22:45.365Z,22.71
2018-07-27T05:25:14.506Z,22.76
2018-07-27T05:27:43.657Z,22.67
2018-07-27T05:30:12.845Z,22.62
2018-07-27T05:32:42.012Z,22.68
2018-07-27T05:35:11.140Z,22.72
2018-07-27T05:37:40.241Z,22.73
2018-07-27T05:40:09.382Z,22.78
2018-07-27T05:42:39.190Z,22.89
2018-07-27T05:45:08.290Z,23.02
2018-07-27T05:47:37.371Z,23.00
2018-07-27T05:50:06.826Z,23.06
2018-07-27T05:52:35.930Z,23.09
2018-07-27T05:55:10.895Z,23.19
2018-07-27T05:57:45.847Z,23.26
2018-07-27T06:00:20.905Z,23.28
2018-07-27T06:02:56.547Z,23.35
2018-07-27T06:05:31.684Z,23.45
2018-07-27T06:08:06.762Z,23.61
2018-07-27T06:10:41.818Z,23.77
2018-07-27T06:13:16.774Z,23.82
2018-07-27T06:15:51.825Z,23.88
2018-07-27T06:18:21.029Z,24.01
2018-07-27T06:20:50.174Z,24.16
2018-07-27T06:23:19.344Z,24.30
2018-07-27T06:25:48.392Z,24.29
2018-07-27T06:28:17.559Z,24.33
2018-07-27T06:30:46.662Z,24.47
2018-07-27T06:33:15.928Z,24.65
2018-07-27T06:35:45.106Z,24.65
2018-07-27T06:38:14.206Z,24.75
2018-07-27T06:40:43.500Z,24.97
2018-07-27T06:43:12.578Z,25.04
2018-07-27T06:45:41.707Z,25.13
2018-07-27T06:48:16.199Z,25.18
2018-07-27T06:50:45.326Z,25.24
2018-07-27T06:53:14.430Z,25.35
2018-07-27T06:55:44.084Z,25.46
2018-07-27T06:58:13.211Z,25.64
2018-07-27T07:00:42.269Z,25.77
2018-07-27T07:03:11.433Z,25.90
2018-07-27T07:05:40.669Z,26.05
2018-07-27T07:08:09.702Z,26.20
2018-07-27T07:10:38.898Z,26.32
2018-07-27T07:13:08.113Z,26.43
2018-07-27T07:15:37.213Z,26.49
2018-07-27T07:18:06.495Z,26.57
2018-07-27T07:20:36.412Z,26.71
2018-07-27T07:23:05.710Z,26.87
2018-07-27T07:25:35.024Z,26.98
2018-07-27T07:28:04.110Z,27.12
2018-07-27T07:30:33.305Z,27.25
2018-07-27T07:33:02.704Z,27.40
2018-07-27T07:35:31.892Z,27.53
2018-07-27T07:38:01.049Z,27.22
2018-07-27T07:40:30.339Z,27.26
2018-07-27T07:42:59.437Z,27.41
2018-07-27T07:45:28.510Z,27.63
2018-07-27T07:47:57.613Z,27.86
2018-07-27T07:50:26.806Z,28.04
2018-07-27T07:52:55.922Z,28.14
2018-07-27T07:55:24.985Z,28.23
2018-07-27T07:57:54.169Z,28.30
2018-07-27T08:00:23.378Z,28.48
2018-07-27T08:02:52.462Z,28.54
2018-07-27T08:05:21.581Z,28.64
2018-07-27T08:07:50.878Z,28.77
2018-07-27T08:10:19.957Z,28.89
2018-07-27T08:12:49.048Z,29.00
2018-07-27T08:15:18.179Z,28.97
2018-07-27T08:17:47.367Z,29.03
2018-07-27T08:20:16.851Z,29.10
2018-07-27T08:22:46.040Z,29.16
2018-07-27T08:25:15.213Z,29.39
2018-07-27T08:27:44.415Z,29.52
2018-07-27T08:30:14.971Z,29.64
2018-07-27T08:32:44.138Z,29.73
2018-07-27T08:35:13.366Z,29.84
2018-07-27T08:37:42.542Z,29.95
2018-07-27T08:40:11.777Z,30.07
2018-07-27T08:42:40.937Z,30.22
2018-07-27T08:45:09.986Z,30.34
2018-07-27T08:47:39.128Z,30.45
2018-07-27T08:50:08.221Z,30.52
2018-07-27T08:52:37.344Z,30.56
2018-07-27T08:55:06.515Z,30.67
2018-07-27T08:57:35.618Z,30.80
2018-07-27T09:00:05.356Z,30.89
2018-07-27T09:02:34.597Z,30.99
2018-07-27T09:05:03.849Z,31.11
2018-07-27T09:07:32.942Z,31.18
2018-07-27T09:10:02.166Z,31.22
2018-07-27T09:12:31.349Z,31.30
2018-07-27T09:15:00.462Z,31.38
2018-07-27T09:17:29.531Z,31.51
2018-07-27T09:19:58.729Z,31.66
2018-07-27T09:22:27.936Z,31.70
2018-07-27T09:24:58.502Z,31.70
2018-07-27T09:27:27.358Z,31.78
2018-07-27T09:29:56.839Z,31.83
2018-07-27T09:32:25.949Z,31.91
2018-07-27T09:34:55.145Z,31.71
2018-07-27T09:37:24.351Z,31.61
2018-07-27T09:39:53.851Z,31.57
2018-07-27T09:42:23.055Z,31.77
2018-07-27T09:44:53.063Z,31.93
2018-07-27T09:47:22.191Z,32.15
2018-07-27T09:49:51.334Z,32.31
2018-07-27T09:52:20.425Z,32.39
2018-07-27T09:54:50.121Z,32.37
2018-07-27T09:57:19.565Z,32.45
2018-07-27T09:59:49.186Z,32.50
2018-07-27T10:02:18.397Z,32.29
2018-07-27T10:04:47.589Z,32.43
2018-07-27T10:07:16.665Z,32.60
2018-07-27T10:09:45.795Z,32.65
2018-07-27T10:12:14.935Z,32.55
2018-07-27T10:14:44.070Z,32.59
2018-07-27T10:17:13.203Z,32.73
2018-07-27T10:19:42.376Z,32.92
2018-07-27T10:22:11.561Z,32.71
2018-07-27T10:24:40.856Z,32.67
2018-07-27T10:27:09.943Z,32.64
2018-07-27T10:29:39.081Z,32.68
2018-07-27T10:32:08.349Z,32.79
2018-07-27T10:34:37.550Z,32.74
2018-07-27T10:37:06.728Z,32.89
2018-07-27T10:39:35.829Z,33.08
2018-07-27T10:42:05.142Z,33.34
2018-07-27T10:44:34.348Z,33.19
2018-07-27T10:47:04.972Z,33.21
2018-07-27T10:49:35.629Z,33.37
2018-07-27T10:52:04.801Z,33.61
2018-07-27T10:54:34.871Z,33.56
2018-07-27T10:57:04.109Z,33.82
2018-07-27T10:59:34.299Z,34.10
2018-07-27T11:02:03.802Z,34.20
2018-07-27T11:04:32.922Z,34.19
2018-07-27T11:07:02.263Z,34.25
2018-07-27T11:09:34.219Z,34.20
2018-07-27T11:12:03.407Z,34.25
2018-07-27T11:14:32.680Z,34.02
2018-07-27T11:17:01.806Z,34.12
2018-07-27T11:19:31.364Z,34.46
2018-07-27T11:22:00.615Z,34.74
2018-07-27T11:24:29.761Z,34.94
2018-07-27T11:26:58.977Z,34.83
2018-07-27T11:29:28.068Z,34.71
2018-07-27T11:31:57.359Z,34.56
2018-07-27T11:34:26.863Z,34.46
2018-07-27T11:36:56.634Z,34.53
2018-07-27T11:39:26.314Z,34.45
2018-07-27T11:41:55.428Z,34.35
2018-07-27T11:44:24.736Z,34.60
2018-07-27T11:46:54.439Z,34.76
2018-07-27T11:49:23.523Z,35.09
2018-07-27T11:51:52.637Z,35.31
2018-07-27T11:54:21.791Z,35.47
2018-07-27T11:56:50.873Z,33.45
2018-07-27T11:59:20.131Z,35.62
2018-07-27T12:01:49.216Z,35.35
2018-07-27T12:04:18.313Z,35.52
2018-07-27T12:06:47.397Z,35.60
2018-07-27T12:09:16.486Z,35.78
2018-07-27T12:11:45.883Z,35.80
2018-07-27T12:14:15.094Z,35.97
2018-07-27T12:16:44.276Z,36.14
2018-07-27T12:19:13.399Z,36.00
2018-07-27T12:21:42.670Z,36.05
2018-07-27T12:24:11.563Z,36.17
2018-07-27T12:26:40.714Z,36.17
2018-07-27T12:29:09.801Z,36.42
2018-07-27T12:31:39.101Z,36.64
2018-07-27T12:34:08.182Z,36.81
2018-07-27T12:36:37.362Z,36.94
2018-07-27T12:39:09.313Z,36.52
2018-07-27T12:41:39.583Z,36.13
2018-07-27T12:44:08.678Z,35.94
2018-07-27T12:46:38.569Z,36.19
2018-07-27T12:49:07.845Z,36.31
2018-07-27T12:51:36.933Z,36.82
2018-07-27T12:54:06.276Z,37.23
2018-07-27T12:56:35.374Z,37.54
2018-07-27T12:59:04.507Z,37.62
2018-07-27T13:01:33.587Z,37.67
2018-07-27T13:04:02.681Z,37.79
2018-07-27T13:06:31.890Z,37.67
2018-07-27T13:09:01.003Z,37.74
2018-07-27T13:11:30.087Z,37.93
2018-07-27T13:13:59.809Z,38.12
2018-07-27T13:16:28.979Z,38.30
2018-07-27T13:18:58.174Z,38.38
2018-07-27T13:21:27.258Z,38.56
2018-07-27T13:23:59.697Z,38.57
2018-07-27T13:26:28.805Z,38.59
2018-07-27T13:28:58.193Z,38.51
2018-07-27T13:31:43.022Z,38.76
2018-07-27T13:34:51.959Z,38.92
2018-07-27T13:37:22.241Z,38.87
2018-07-27T13:39:52.668Z,38.35
2018-07-27T13:42:23.777Z,37.62
2018-07-27T13:44:52.972Z,37.67
2018-07-27T13:47:22.080Z,38.16
2018-07-27T13:49:51.261Z,38.10
2018-07-27T13:52:20.302Z,37.42
2018-07-27T13:54:49.423Z,37.67
2018-07-27T13:57:18.561Z,38.35
2018-07-27T13:59:47.636Z,38.47
2018-07-27T14:02:16.779Z,38.50
2018-07-27T14:04:46.460Z,38.77
2018-07-27T14:07:15.646Z,38.78
2018-07-27T14:09:44.802Z,39.22
2018-07-27T14:12:13.958Z,39.28
2018-07-27T14:14:43.149Z,39.40
2018-07-27T14:17:12.462Z,39.57
2018-07-27T14:19:41.586Z,39.55
2018-07-27T14:22:11.117Z,39.63
2018-07-27T14:24:40.292Z,39.72
2018-07-27T14:27:09.394Z,39.57
2018-07-27T14:29:38.529Z,39.79
2018-07-27T14:32:07.621Z,39.62
2018-07-27T14:34:36.721Z,40.08
2018-07-27T14:39:45.448Z,40.39
2018-07-27T14:42:14.612Z,40.76
2018-07-27T14:44:43.713Z,40.95
2018-07-27T14:47:12.905Z,40.90
2018-07-27T14:49:41.979Z,40.97
2018-07-27T14:52:11.163Z,41.22
2018-07-27T14:54:40.238Z,41.44
2018-07-27T14:57:09.426Z,41.01
2018-07-27T14:59:38.518Z,40.92
2018-07-27T15:02:07.666Z,41.31
2018-07-27T15:04:36.789Z,40.83
2018-07-27T15:07:05.849Z,40.86
2018-07-27T15:09:34.905Z,41.13
2018-07-27T15:12:03.982Z,41.43
2018-07-27T15:14:33.114Z,41.54
2018-07-27T15:17:02.197Z,40.47
2018-07-27T15:19:31.308Z,40.28
2018-07-27T15:22:00.451Z,40.67
2018-07-27T15:24:29.970Z,41.34
2018-07-27T15:26:59.022Z,41.86
2018-07-27T15:29:28.291Z,41.85
2018-07-27T15:31:57.496Z,41.78
2018-07-27T15:34:26.806Z,41.88
2018-07-27T15:36:56.119Z,42.02
2018-07-27T15:39:26.070Z,41.62
2018-07-27T15:41:55.166Z,42.12
2018-07-27T15:44:24.294Z,41.92
2018-07-27T15:46:53.501Z,41.62
2018-07-27T15:49:22.569Z,41.24
2018-07-27T15:51:52.087Z,40.42
2018-07-27T15:54:21.284Z,40.32
2018-07-27T15:56:50.368Z,40.91
2018-07-27T15:59:19.534Z,41.23
2018-07-27T16:01:48.662Z,41.49
2018-07-27T16:04:17.846Z,42.10
2018-07-27T16:06:46.917Z,42.68
2018-07-27T16:09:16.122Z,42.88
2018-07-27T16:11:45.364Z,42.92
2018-07-27T16:14:14.752Z,43.03
2018-07-27T16:16:43.849Z,42.83
2018-07-27T16:19:12.959Z,43.10
2018-07-27T16:21:42.133Z,43.14
2018-07-27T16:24:11.259Z,42.75
2018-07-27T16:26:40.363Z,42.65
2018-07-27T16:29:09.489Z,42.46
2018-07-27T16:31:38.629Z,42.17
2018-07-27T16:34:07.723Z,42.16
2018-07-27T16:36:37.493Z,42.27
2018-07-27T16:39:08.634Z,42.42
2018-07-27T16:41:37.773Z,42.49
2018-07-27T16:44:07.042Z,42.25
2018-07-27T16:46:36.589Z,41.89
2018-07-27T16:49:05.983Z,42.04
2018-07-27T16:51:35.816Z,42.28
2018-07-27T16:54:05.198Z,41.60
2018-07-27T16:56:34.313Z,41.44
2018-07-27T16:59:03.401Z,41.41
2018-07-27T17:01:32.504Z,41.31
2018-07-27T17:04:01.726Z,40.63
2018-07-27T17:06:30.842Z,40.54
2018-07-27T17:08:59.963Z,40.61
2018-07-27T17:11:29.073Z,40.63
2018-07-27T17:13:58.597Z,40.04
2018-07-27T17:16:27.851Z,39.70
2018-07-27T17:18:56.990Z,39.18
2018-07-27T17:21:26.088Z,38.86
2018-07-27T17:23:55.186Z,38.76
2018-07-27T17:26:24.294Z,38.47
2018-07-27T17:28:53.422Z,38.09
2018-07-27T17:31:22.634Z,38.00
2018-07-27T17:33:51.885Z,37.80
2018-07-27T17:36:20.965Z,37.73
2018-07-27T17:38:50.285Z,37.68
2018-07-27T17:41:19.338Z,37.62
2018-07-27T17:43:48.429Z,37.51
2018-07-27T17:46:17.602Z,37.48
2018-07-27T17:48:46.691Z,37.37
2018-07-27T17:51:15.797Z,37.21
2018-07-27T17:53:44.952Z,37.07
2018-07-27T17:56:14.458Z,37.06
2018-07-27T17:58:43.655Z,37.03
2018-07-27T18:01:12.852Z,36.95
2018-07-27T18:03:42.273Z,36.72
2018-07-27T18:06:11.436Z,36.64
2018-07-27T18:08:40.761Z,36.45
2018-07-27T18:11:09.936Z,36.33
2018-07-27T18:13:39.057Z,36.25
2018-07-27T18:16:08.282Z,36.17
2018-07-27T18:18:37.435Z,36.01
2018-07-27T18:21:06.919Z,35.88
2018-07-27T18:23:36.378Z,35.89
2018-07-27T18:26:05.636Z,35.89
2018-07-27T18:28:34.742Z,35.80
2018-07-27T18:31:03.842Z,35.78
2018-07-27T18:33:32.925Z,35.68
2018-07-27T18:36:02.123Z,35.55
2018-07-27T18:38:31.218Z,35.32
2018-07-27T18:41:00.337Z,35.23
2018-07-27T18:43:29.424Z,35.13
2018-07-27T18:45:58.522Z,35.05
2018-07-27T18:48:27.610Z,34.98
2018-07-27T18:50:56.813Z,34.87
2018-07-27T18:53:25.914Z,34.82
2018-07-27T18:55:55.037Z,34.75
2018-07-27T18:58:24.102Z,34.82
2018-07-27T19:00:53.200Z,34.82
2018-07-27T19:03:22.409Z,34.68
2018-07-27T19:05:51.608Z,34.67
2018-07-27T19:08:20.704Z,34.50
2018-07-27T19:10:49.862Z,34.44
2018-07-27T19:13:18.969Z,34.29
2018-07-27T19:15:48.174Z,34.19
2018-07-27T19:18:17.278Z,34.12
2018-07-27T19:20:46.418Z,33.94
2018-07-27T19:23:15.525Z,33.90
2018-07-27T19:25:44.555Z,33.84
2018-07-27T19:28:13.772Z,33.58
2018-07-27T19:30:42.916Z,33.37
2018-07-27T19:33:12.391Z,33.22
2018-07-27T19:35:41.581Z,33.17
2018-07-27T19:38:10.672Z,33.03
2018-07-27T19:40:39.740Z,32.90
2018-07-27T19:43:09.202Z,32.87
2018-07-27T19:45:38.342Z,32.72
2018-07-27T19:48:07.669Z,32.47
2018-07-27T19:50:36.841Z,32.43
2018-07-27T19:53:06.166Z,32.31
2018-07-27T19:55:35.442Z,32.22
2018-07-27T19:58:04.541Z,31.92
2018-07-27T20:00:33.749Z,31.83
2018-07-27T20:03:02.938Z,31.68
2018-07-27T20:05:32.962Z,31.64
2018-07-27T20:08:02.058Z,31.56
2018-07-27T20:10:31.244Z,31.38
2018-07-27T20:13:00.400Z,31.16
2018-07-27T20:15:29.523Z,31.09
2018-07-27T20:17:58.652Z,30.93
2018-07-27T20:20:27.874Z,30.91
2018-07-27T20:22:57.037Z,30.90
2018-07-27T20:25:26.352Z,30.84
2018-07-27T20:27:55.429Z,30.76
2018-07-27T20:30:24.915Z,30.70
2018-07-27T20:32:54.033Z,30.58
2018-07-27T20:35:23.206Z,30.51
2018-07-27T20:37:52.413Z,30.39
2018-07-27T20:40:21.584Z,30.34
2018-07-27T20:42:50.662Z,30.35
2018-07-27T20:45:19.821Z,30.29
2018-07-27T20:47:48.957Z,30.15
2018-07-27T20:50:18.088Z,29.97
2018-07-27T20:52:47.191Z,29.89
2018-07-27T20:55:16.341Z,29.74
2018-07-27T20:57:45.505Z,29.81
2018-07-27T21:00:14.930Z,29.87
2018-07-27T21:02:45.438Z,29.54
2018-07-27T21:05:14.982Z,29.41
2018-07-27T21:07:44.156Z,29.27
2018-07-27T21:10:14.035Z,29.24
2018-07-27T21:12:43.648Z,29.25
2018-07-27T21:15:12.757Z,29.18
2018-07-27T21:17:41.889Z,29.15
2018-07-27T21:20:10.981Z,28.88
2018-07-27T21:22:40.138Z,28.93
2018-07-27T21:25:09.243Z,28.80
2018-07-27T21:27:38.341Z,28.10
2018-07-27T21:30:07.458Z,28.77
2018-07-27T21:32:36.638Z,28.55
2018-07-27T21:35:05.738Z,28.51
2018-07-27T21:37:34.907Z,28.64
2018-07-27T21:40:03.970Z,28.54
2018-07-27T21:42:33.090Z,28.33
2018-07-27T21:45:02.885Z,28.25
2018-07-27T21:47:31.977Z,28.28
2018-07-27T21:50:01.017Z,28.24
2018-07-27T21:52:30.152Z,28.20
2018-07-27T21:54:59.520Z,28.02
2018-07-27T21:57:28.694Z,27.97
2018-07-27T21:59:57.845Z,27.89
2018-07-27T22:02:26.914Z,27.94
2018-07-27T22:04:56.075Z,27.83
2018-07-27T22:07:25.141Z,27.94
2018-07-27T22:09:54.313Z,28.02
2018-07-27T22:12:23.510Z,27.70
2018-07-27T22:14:52.698Z,27.60
2018-07-27T22:17:21.832Z,27.84
2018-07-27T22:19:50.894Z,27.60
2018-07-27T22:22:19.996Z,27.53
2018-07-27T22:24:49.054Z,27.48
2018-07-27T22:27:18.116Z,27.38
2018-07-27T22:29:47.894Z,27.34
2018-07-27T22:32:17.071Z,27.27
2018-07-27T22:34:46.203Z,27.05
2018-07-27T22:37:15.646Z,27.01
2018-07-27T22:39:44.752Z,26.90
2018-07-27T22:42:13.866Z,26.94
2018-07-27T22:44:42.922Z,26.89
2018-07-27T22:47:12.056Z,26.90
2018-07-27T22:49:41.168Z,26.73
2018-07-27T22:52:10.273Z,26.69
2018-07-27T22:54:39.426Z,26.71
2018-07-27T22:57:08.579Z,26.74
2018-07-27T22:59:37.765Z,26.92
2018-07-27T23:02:06.918Z,26.89
2018-07-27T23:04:36.981Z,27.37
2018-07-27T23:07:06.192Z,27.81
2018-07-27T23:09:35.357Z,27.97
2018-07-27T23:12:04.585Z,28.05
2018-07-27T23:14:33.672Z,28.01
2018-07-27T23:17:02.753Z,27.97
2018-07-27T23:19:31.853Z,27.99
2018-07-27T23:22:01.058Z,27.88
2018-07-27T23:24:30.102Z,27.81
2018-07-27T23:26:59.279Z,27.87
2018-07-27T23:29:28.637Z,27.87
2018-07-27T23:31:57.750Z,27.82
2018-07-27T23:34:26.899Z,27.38
2018-07-27T23:36:56.073Z,26.76
2018-07-27T23:39:25.109Z,26.49
2018-07-27T23:41:54.485Z,26.25
2018-07-27T23:44:23.769Z,26.20
2018-07-27T23:46:53.200Z,26.02
2018-07-27T23:49:22.289Z,26.05
2018-07-27T23:51:51.354Z,26.09
2018-07-27T23:54:20.477Z,25.99
2018-07-27T23:56:49.545Z,25.96
2018-07-27T23:59:18.655Z,26.08
